createdAt,value
2018-09-14T00:02:22.674Z,18.00
2018-09-14T00:04:51.657Z,23.07
2018-09-14T00:07:19.803Z,19.13
2018-09-14T00:09:47.871Z,16.50
2018-09-14T00:12:16.180Z,18.50
2018-09-14T00:14:44.379Z,18.40
2018-09-14T00:17:12.988Z,13.70
2018-09-14T00:19:41.705Z,19.83
2018-09-14T00:22:09.599Z,21.10
2018-09-14T00:24:39.070Z,18.13
2018-09-14T00:27:07.038Z,16.47
2018-09-14T00:29:36.974Z,16.83
2018-09-14T00:32:05.063Z,18.30
2018-09-14T00:34:34.187Z,16.60
2018-09-14T00:37:02.622Z,22.10
2018-09-14T00:39:31.935Z,17.10
2018-09-14T00:42:00.861Z,20.57
2018-09-14T00:44:29.439Z,19.37
2018-09-14T00:46:58.152Z,41.50
2018-09-14T00:49:26.902Z,20.63
2018-09-14T00:51:55.354Z,28.87
2018-09-14T00:54:25.277Z,33.73
2018-09-14T00:56:54.211Z,20.70
2018-09-14T00:59:22.987Z,22.63
2018-09-14T01:01:52.579Z,16.10
2018-09-14T01:04:20.910Z,16.77
2018-09-14T01:06:48.917Z,19.97
2018-09-14T01:09:23.160Z,20.90
2018-09-14T01:11:51.260Z,16.13
2018-09-14T01:14:20.129Z,15.50
2018-09-14T01:16:48.276Z,18.20
2018-09-14T01:19:18.735Z,22.33
2018-09-14T01:21:48.167Z,19.30
2018-09-14T01:24:16.763Z,15.50
2018-09-14T01:26:46.435Z,15.10
2018-09-14T01:29:14.585Z,16.93
2018-09-14T01:31:42.810Z,16.87
2018-09-14T01:34:13.091Z,19.50
2018-09-14T01:36:41.115Z,16.63
2018-09-14T01:39:11.101Z,15.17
2018-09-14T01:41:40.331Z,17.37
2018-09-14T01:44:08.767Z,15.10
2018-09-14T01:46:38.246Z,17.83
2018-09-14T01:49:08.562Z,13.77
2018-09-14T01:51:37.549Z,17.30
2018-09-14T01:54:06.565Z,17.80
2018-09-14T01:56:35.854Z,21.40
2018-09-14T01:59:03.903Z,23.80
2018-09-14T02:01:32.965Z,24.87
2018-09-14T02:04:02.805Z,19.83
2018-09-14T02:06:31.413Z,23.77
2018-09-14T02:09:00.630Z,20.67
2018-09-14T02:11:28.497Z,18.03
2018-09-14T02:13:56.794Z,19.53
2018-09-14T02:16:26.132Z,23.53
2018-09-14T02:18:54.846Z,17.33
2018-09-14T02:21:23.194Z,20.87
2018-09-14T02:23:51.089Z,17.00
2018-09-14T02:26:18.957Z,16.40
2018-09-14T02:28:47.867Z,18.17
2018-09-14T02:31:15.784Z,17.90
2018-09-14T02:33:43.667Z,19.23
2018-09-14T02:36:11.666Z,23.47
2018-09-14T02:38:39.597Z,18.37
2018-09-14T02:41:07.556Z,21.60
2018-09-14T02:43:35.508Z,22.00
2018-09-14T02:46:03.853Z,22.97
2018-09-14T02:48:31.885Z,18.33
2018-09-14T02:51:00.822Z,21.67
2018-09-14T02:53:30.864Z,23.57
2018-09-14T02:55:59.883Z,22.60
2018-09-14T02:58:27.816Z,24.23
2018-09-14T03:00:56.675Z,22.90
2018-09-14T03:03:24.632Z,25.70
2018-09-14T03:05:54.251Z,22.93
2018-09-14T03:08:22.155Z,26.00
2018-09-14T03:10:51.175Z,21.67
2018-09-14T03:13:19.069Z,24.00
2018-09-14T03:15:48.568Z,22.70
2018-09-14T03:18:17.030Z,25.97
2018-09-14T03:20:45.030Z,24.87
2018-09-14T03:23:14.309Z,39.77
2018-09-14T03:25:42.949Z,29.90
2018-09-14T03:28:10.939Z,26.00
2018-09-14T03:30:38.800Z,26.30
2018-09-14T03:33:07.280Z,26.27
2018-09-14T03:35:35.975Z,31.47
2018-09-14T03:38:04.053Z,32.83
2018-09-14T03:40:31.946Z,28.43
2018-09-14T03:42:59.823Z,28.60
2018-09-14T03:45:27.776Z,26.97
2018-09-14T03:47:55.797Z,36.13
2018-09-14T03:50:24.391Z,24.03
2018-09-14T03:52:53.129Z,24.03
2018-09-14T03:55:22.612Z,32.10
2018-09-14T03:57:51.562Z,35.47
2018-09-14T04:00:20.084Z,30.63
2018-09-14T04:02:49.069Z,25.03
2018-09-14T04:05:17.597Z,29.17
2018-09-14T04:07:45.557Z,30.93
2018-09-14T04:10:18.810Z,35.30
2018-09-14T04:12:47.284Z,28.50
2018-09-14T04:15:15.281Z,29.03
2018-09-14T04:17:43.240Z,32.97
2018-09-14T04:20:11.154Z,37.80
2018-09-14T04:22:39.096Z,37.37
2018-09-14T04:25:07.080Z,34.03
2018-09-14T04:27:34.950Z,41.27
2018-09-14T04:30:02.947Z,41.47
2018-09-14T04:32:31.553Z,38.13
2018-09-14T04:34:59.445Z,36.10
2018-09-14T04:40:09.232Z,39.50
2018-09-14T04:42:37.109Z,39.40
2018-09-14T04:45:05.945Z,43.23
2018-09-14T04:47:33.824Z,40.93
2018-09-14T04:50:01.739Z,46.73
2018-09-14T04:52:29.669Z,43.73
2018-09-14T04:54:58.463Z,50.00
2018-09-14T04:57:28.405Z,44.80
2018-09-14T04:59:59.964Z,45.70
2018-09-14T05:02:29.520Z,49.50
2018-09-14T05:04:58.675Z,42.23
2018-09-14T05:07:28.790Z,39.87
2018-09-14T05:09:56.842Z,42.63
2018-09-14T05:12:25.235Z,44.80
2018-09-14T05:14:54.637Z,40.53
2018-09-14T05:17:22.982Z,47.63
2018-09-14T05:19:51.030Z,54.83
2018-09-14T05:22:20.035Z,47.23
2018-09-14T05:24:52.734Z,50.80
2018-09-14T05:27:23.078Z,44.20
2018-09-14T05:29:51.924Z,43.27
2018-09-14T05:32:21.130Z,41.47
2018-09-14T05:34:50.321Z,59.97
2018-09-14T05:37:19.168Z,49.77
2018-09-14T05:39:47.054Z,44.67
2018-09-14T05:42:14.880Z,47.53
2018-09-14T05:44:42.781Z,42.90
2018-09-14T05:47:11.406Z,41.93
2018-09-14T05:49:39.274Z,41.13
2018-09-14T05:52:08.347Z,43.83
2018-09-14T05:54:37.347Z,40.63
2018-09-14T05:57:05.342Z,39.17
2018-09-14T05:59:33.318Z,48.13
2018-09-14T06:02:01.254Z,46.30
2018-09-14T06:04:30.107Z,44.93
2018-09-14T06:06:58.808Z,43.77
2018-09-14T06:09:27.258Z,48.90
2018-09-14T06:11:55.173Z,51.80
2018-09-14T06:14:23.650Z,52.50
2018-09-14T06:16:52.190Z,45.83
2018-09-14T06:19:20.115Z,47.20
2018-09-14T06:21:48.008Z,41.80
2018-09-14T06:24:17.877Z,50.97
2018-09-14T06:26:47.068Z,52.33
2018-09-14T06:29:16.790Z,54.30
2018-09-14T06:31:52.021Z,49.07
2018-09-14T06:34:27.723Z,59.47
2018-09-14T06:36:57.462Z,47.13
2018-09-14T06:39:27.428Z,49.13
2018-09-14T06:42:18.239Z,52.40
2018-09-14T06:44:52.271Z,57.57
2018-09-14T06:47:21.828Z,58.90
2018-09-14T06:49:55.029Z,49.00
2018-09-14T06:52:25.684Z,50.03
2018-09-14T06:54:56.534Z,57.90
2018-09-14T06:57:31.831Z,50.43
2018-09-14T07:00:05.425Z,57.23
2018-09-14T07:02:38.965Z,55.27
2018-09-14T07:05:15.244Z,61.23
2018-09-14T07:07:48.600Z,48.57
2018-09-14T07:10:20.067Z,49.13
2018-09-14T07:12:51.550Z,53.47
2018-09-14T07:15:22.250Z,50.07
2018-09-14T07:17:54.949Z,55.43
2018-09-14T07:20:25.846Z,55.80
2018-09-14T07:23:03.055Z,60.27
2018-09-14T07:25:40.857Z,56.50
2018-09-14T07:28:18.854Z,59.00
2018-09-14T07:30:49.687Z,58.90
2018-09-14T07:33:21.070Z,63.43
2018-09-14T07:35:53.564Z,58.97
2018-09-14T07:38:27.564Z,72.10
2018-09-14T07:41:03.036Z,67.77
2018-09-14T07:43:39.362Z,62.30
2018-09-14T07:46:10.871Z,58.70
2018-09-14T07:48:43.441Z,63.93
2018-09-14T07:51:18.581Z,51.43
2018-09-14T07:53:53.174Z,58.13
2018-09-14T07:56:21.103Z,51.17
2018-09-14T07:58:53.275Z,47.67
2018-09-14T08:01:27.874Z,60.20
2018-09-14T08:03:57.085Z,55.97
2018-09-14T08:06:32.745Z,49.37
2018-09-14T08:09:05.886Z,41.10
2018-09-14T08:11:39.607Z,42.67
2018-09-14T08:14:15.383Z,36.37
2018-09-14T08:16:43.954Z,48.60
2018-09-14T08:19:11.855Z,44.90
2018-09-14T08:21:47.335Z,38.00
2018-09-14T08:24:26.287Z,40.20
2018-09-14T08:27:02.224Z,31.93
2018-09-14T08:29:32.702Z,27.80
2018-09-14T08:32:05.684Z,23.03
2018-09-14T08:34:40.598Z,23.00
2018-09-14T08:37:20.706Z,28.27
2018-09-14T08:39:49.564Z,26.97
2018-09-14T08:42:17.469Z,22.77
2018-09-14T08:44:45.391Z,25.03
2018-09-14T08:47:14.300Z,21.13
2018-09-14T08:49:43.488Z,19.40
2018-09-14T08:52:12.243Z,22.63
2018-09-14T08:54:40.125Z,26.80
2018-09-14T08:57:07.942Z,25.00
2018-09-14T08:59:35.878Z,22.33
2018-09-14T09:02:03.960Z,15.73
2018-09-14T09:04:31.842Z,19.93
2018-09-14T09:06:59.691Z,15.40
2018-09-14T09:09:27.805Z,11.17
2018-09-14T09:11:55.702Z,11.60
2018-09-14T09:14:23.558Z,12.20
2018-09-14T09:16:52.172Z,9.63
2018-09-14T09:19:20.064Z,10.93
2018-09-14T09:21:48.267Z,9.30
2018-09-14T09:24:17.158Z,11.17
2018-09-14T09:26:45.042Z,10.73
2018-09-14T09:29:13.205Z,6.37
2018-09-14T09:31:41.210Z,6.57
2018-09-14T09:34:09.108Z,5.73
2018-09-14T09:36:37.511Z,3.93
2018-09-14T09:39:10.219Z,4.87
2018-09-14T09:41:38.480Z,5.47
2018-09-14T09:44:06.747Z,5.70
2018-09-14T09:46:34.604Z,11.37
2018-09-14T09:49:02.482Z,6.23
2018-09-14T09:51:30.399Z,4.17
2018-09-14T09:53:59.340Z,3.57
2018-09-14T09:56:27.272Z,5.17
2018-09-14T09:58:55.178Z,4.00
2018-09-14T10:01:29.483Z,4.17
2018-09-14T10:04:03.083Z,3.70
2018-09-14T10:06:31.019Z,4.77
2018-09-14T10:08:59.160Z,6.60
2018-09-14T10:11:27.088Z,2.57
2018-09-14T10:13:55.294Z,2.77
2018-09-14T10:16:23.155Z,3.57
2018-09-14T10:18:51.576Z,7.97
2018-09-14T10:21:24.394Z,2.70
2018-09-14T10:23:56.182Z,4.70
2018-09-14T10:26:25.276Z,3.93
2018-09-14T10:28:53.250Z,2.93
2018-09-14T10:31:22.162Z,2.60
2018-09-14T10:33:50.103Z,5.40
2018-09-14T10:36:17.981Z,3.07
2018-09-14T10:38:51.273Z,3.60
2018-09-14T10:41:19.246Z,3.90
2018-09-14T10:43:55.457Z,9.83
2018-09-14T10:46:26.587Z,4.20
2018-09-14T10:48:57.595Z,3.37
2018-09-14T10:51:25.646Z,3.80
2018-09-14T10:53:57.484Z,6.03
2018-09-14T10:56:26.510Z,4.80
2018-09-14T10:58:59.324Z,5.17
2018-09-14T11:01:33.202Z,5.50
2018-09-14T11:04:07.568Z,3.30
2018-09-14T11:06:45.445Z,3.13
2018-09-14T11:09:21.573Z,5.20
2018-09-14T11:11:56.886Z,4.13
2018-09-14T11:14:30.405Z,5.53
2018-09-14T11:17:06.007Z,5.13
2018-09-14T11:19:50.611Z,3.00
2018-09-14T11:22:31.607Z,8.20
2018-09-14T11:25:04.059Z,4.90
2018-09-14T11:27:38.628Z,3.90
2018-09-14T11:30:26.031Z,5.00
2018-09-14T11:32:59.717Z,4.50
2018-09-14T11:35:34.127Z,8.03
2018-09-14T11:38:03.350Z,5.87
2018-09-14T11:40:38.640Z,4.80
2018-09-14T11:43:20.951Z,4.40
2018-09-14T11:45:55.541Z,3.87
2018-09-14T11:48:32.031Z,4.53
2018-09-14T11:51:07.834Z,7.80
2018-09-14T11:53:45.164Z,14.70
2018-09-14T11:56:14.071Z,4.30
2018-09-14T11:58:42.798Z,3.43
2018-09-14T12:01:21.430Z,4.53
2018-09-14T12:03:57.846Z,4.90
2018-09-14T12:06:31.219Z,6.23
2018-09-14T12:09:06.224Z,3.60
2018-09-14T12:11:34.440Z,7.90
2018-09-14T12:14:09.512Z,6.10
2018-09-14T12:16:43.547Z,5.13
2018-09-14T12:19:16.883Z,5.90
2018-09-14T12:21:53.147Z,5.40
2018-09-14T12:24:26.151Z,4.23
2018-09-14T12:27:01.381Z,6.40
2018-09-14T12:29:34.563Z,5.20
2018-09-14T12:32:20.460Z,5.57
2018-09-14T12:34:55.460Z,5.40
2018-09-14T12:37:36.965Z,4.93
2018-09-14T12:40:15.072Z,5.90
2018-09-14T12:42:52.266Z,3.70
2018-09-14T12:45:24.969Z,10.50
2018-09-14T12:48:01.125Z,5.90
2018-09-14T12:50:37.497Z,6.73
2018-09-14T12:53:07.375Z,5.50
2018-09-14T12:55:39.382Z,6.50
2018-09-14T12:58:17.476Z,6.90
2018-09-14T13:00:54.654Z,9.00
2018-09-14T13:03:30.545Z,6.43
2018-09-14T13:06:07.677Z,7.57
2018-09-14T13:08:42.551Z,10.23
2018-09-14T13:11:20.878Z,6.00
2018-09-14T13:13:50.233Z,6.17
2018-09-14T13:16:29.861Z,6.40
2018-09-14T13:19:07.787Z,8.23
2018-09-14T13:21:43.794Z,5.63
2018-09-14T13:24:16.859Z,6.97
2018-09-14T13:26:52.485Z,7.53
2018-09-14T13:29:25.810Z,7.50
2018-09-14T13:31:56.413Z,4.80
2018-09-14T13:34:34.149Z,8.70
2018-09-14T13:37:09.499Z,6.07
2018-09-14T13:39:48.704Z,9.57
2018-09-14T13:42:22.704Z,9.27
2018-09-14T13:44:55.905Z,6.87
2018-09-14T13:47:28.805Z,7.80
2018-09-14T13:50:05.474Z,5.20
2018-09-14T13:52:43.243Z,6.80
2018-09-14T13:55:21.677Z,7.07
2018-09-14T13:57:58.112Z,6.03
2018-09-14T14:00:32.110Z,6.50
2018-09-14T14:03:05.688Z,7.20
2018-09-14T14:05:37.720Z,9.10
2018-09-14T14:08:11.925Z,7.43
2018-09-14T14:10:46.323Z,8.50
2018-09-14T14:13:21.117Z,8.90
2018-09-14T14:15:58.024Z,7.50
2018-09-14T14:18:29.627Z,8.60
2018-09-14T14:21:04.250Z,13.40
2018-09-14T14:23:41.753Z,14.90
2018-09-14T14:26:18.430Z,9.77
2018-09-14T14:28:51.934Z,14.67
2018-09-14T14:31:24.045Z,15.30
2018-09-14T14:33:57.637Z,15.70
2018-09-14T14:36:31.740Z,14.70
2018-09-14T14:39:08.567Z,14.70
2018-09-14T14:41:45.367Z,25.03
2018-09-14T14:44:18.046Z,17.37
2018-09-14T14:46:52.946Z,17.13
2018-09-14T14:49:30.149Z,15.93
2018-09-14T14:52:06.863Z,16.87
2018-09-14T14:54:40.368Z,14.70
2018-09-14T14:57:13.822Z,18.37
2018-09-14T14:59:48.893Z,17.93
2018-09-14T15:02:20.029Z,16.37
2018-09-14T15:04:59.667Z,15.07
2018-09-14T15:07:36.659Z,19.60
2018-09-14T15:10:16.061Z,21.07
2018-09-14T15:12:51.062Z,18.03
2018-09-14T15:15:25.920Z,17.87
2018-09-14T15:17:54.836Z,17.70
2018-09-14T15:20:26.608Z,24.83
2018-09-14T15:22:54.823Z,18.00
2018-09-14T15:25:22.764Z,16.30
2018-09-14T15:27:57.567Z,16.60
2018-09-14T15:30:32.661Z,19.30
2018-09-14T15:33:04.347Z,21.83
2018-09-14T15:35:32.932Z,17.87
2018-09-14T15:38:03.784Z,19.30
2018-09-14T15:40:37.202Z,16.50
2018-09-14T15:43:10.381Z,19.90
2018-09-14T15:45:44.688Z,18.87
2018-09-14T15:48:16.203Z,16.80
2018-09-14T15:50:54.688Z,26.23
2018-09-14T15:53:28.368Z,19.40
2018-09-14T15:56:02.360Z,16.00
2018-09-14T15:58:37.027Z,16.40
2018-09-14T16:01:08.592Z,16.07
2018-09-14T16:03:39.169Z,17.53
2018-09-14T16:06:14.032Z,15.97
2018-09-14T16:08:48.100Z,19.17
2018-09-14T16:11:20.053Z,22.50
2018-09-14T16:13:52.511Z,15.90
2018-09-14T16:16:25.494Z,20.80
2018-09-14T16:18:58.111Z,17.33
2018-09-14T16:21:32.512Z,23.03
2018-09-14T16:24:07.026Z,20.93
2018-09-14T16:26:37.736Z,21.97
2018-09-14T16:29:13.514Z,23.00
2018-09-14T16:31:48.126Z,20.17
2018-09-14T16:34:27.286Z,21.43
2018-09-14T16:36:58.872Z,25.67
2018-09-14T16:39:30.673Z,23.27
2018-09-14T16:42:03.173Z,20.23
2018-09-14T16:44:37.156Z,17.47
2018-09-14T16:47:11.528Z,18.97
2018-09-14T16:49:44.925Z,23.37
2018-09-14T16:52:15.337Z,25.33
2018-09-14T16:54:45.640Z,21.17
2018-09-14T16:57:18.715Z,19.63
2018-09-14T16:59:51.511Z,28.07
2018-09-14T17:02:23.289Z,32.73
2018-09-14T17:04:57.369Z,33.17
2018-09-14T17:07:30.440Z,27.73
2018-09-14T17:10:03.642Z,26.33
2018-09-14T17:12:35.755Z,25.90
2018-09-14T17:15:07.062Z,21.80
2018-09-14T17:17:41.441Z,20.90
2018-09-14T17:20:16.145Z,29.10
2018-09-14T17:22:48.379Z,33.13
2018-09-14T17:25:21.351Z,31.23
2018-09-14T17:27:55.771Z,30.73
2018-09-14T17:30:32.374Z,32.30
2018-09-14T17:33:08.746Z,28.40
2018-09-14T17:35:41.841Z,29.33
2018-09-14T17:38:16.160Z,28.20
2018-09-14T17:40:49.257Z,29.60
2018-09-14T17:43:22.631Z,41.73
2018-09-14T17:45:54.161Z,29.93
2018-09-14T17:48:24.368Z,32.83
2018-09-14T17:50:54.151Z,34.73
2018-09-14T17:53:28.227Z,36.77
2018-09-14T17:55:56.585Z,32.10
2018-09-14T17:58:30.470Z,34.27
2018-09-14T18:01:08.523Z,30.63
2018-09-14T18:03:40.375Z,32.20
2018-09-14T18:06:12.476Z,36.57
2018-09-14T18:08:49.679Z,33.50
2018-09-14T18:11:21.981Z,35.50
2018-09-14T18:13:51.252Z,32.60
2018-09-14T18:16:26.815Z,33.53
2018-09-14T18:18:59.982Z,36.67
2018-09-14T18:21:31.577Z,38.33
2018-09-14T18:24:04.559Z,36.47
2018-09-14T18:26:38.990Z,36.07
2018-09-14T18:29:10.233Z,35.63
2018-09-14T18:31:40.830Z,33.90
2018-09-14T18:34:11.698Z,39.40
2018-09-14T18:36:48.399Z,35.50
2018-09-14T18:39:20.505Z,36.90
2018-09-14T18:41:54.518Z,39.00
2018-09-14T18:44:26.471Z,36.83
2018-09-14T18:47:00.812Z,37.20
2018-09-14T18:49:32.812Z,44.50
2018-09-14T18:52:07.099Z,37.93
2018-09-14T18:54:43.419Z,37.93
2018-09-14T18:57:14.012Z,39.33
2018-09-14T18:59:54.776Z,39.37
2018-09-14T19:02:27.591Z,42.63
2018-09-14T19:04:58.703Z,44.60
2018-09-14T19:07:37.528Z,37.00
2018-09-14T19:10:10.918Z,41.80
2018-09-14T19:12:47.610Z,37.23
2018-09-14T19:15:18.322Z,44.20
2018-09-14T19:17:49.405Z,38.30
2018-09-14T19:20:26.340Z,43.50
2018-09-14T19:22:59.418Z,43.27
2018-09-14T19:25:31.930Z,43.60
2018-09-14T19:28:07.196Z,48.70
2018-09-14T19:30:39.449Z,36.80
2018-09-14T19:33:14.471Z,37.87
2018-09-14T19:35:46.560Z,40.93
2018-09-14T19:38:23.487Z,41.00
2018-09-14T19:41:00.022Z,39.57
2018-09-14T19:43:34.634Z,40.20
2018-09-14T19:46:03.847Z,40.43
2018-09-14T19:48:38.528Z,38.90
2018-09-14T19:51:16.487Z,38.97
2018-09-14T19:53:49.040Z,39.73
2018-09-14T19:56:23.838Z,41.93
2018-09-14T19:58:53.539Z,41.33
2018-09-14T20:01:25.870Z,40.03
2018-09-14T20:03:56.945Z,42.63
2018-09-14T20:06:31.065Z,44.90
2018-09-14T20:09:03.688Z,45.50
2018-09-14T20:11:36.616Z,44.43
2018-09-14T20:14:06.552Z,37.50
2018-09-14T20:16:35.859Z,40.37
2018-09-14T20:19:08.256Z,44.73
2018-09-14T20:21:40.485Z,44.13
2018-09-14T20:24:11.047Z,44.87
2018-09-14T20:26:43.697Z,41.80
2018-09-14T20:29:15.671Z,41.80
2018-09-14T20:31:47.285Z,42.53
2018-09-14T20:34:22.352Z,39.40
2018-09-14T20:36:52.568Z,42.90
2018-09-14T20:39:21.676Z,41.80
2018-09-14T20:41:52.351Z,40.90
2018-09-14T20:44:23.208Z,40.47
2018-09-14T20:46:57.454Z,38.50
2018-09-14T20:49:29.545Z,40.90
2018-09-14T20:52:00.098Z,43.50
2018-09-14T20:54:34.282Z,42.07
2018-09-14T20:57:08.188Z,37.20
2018-09-14T20:59:42.305Z,37.13
2018-09-14T21:02:12.782Z,36.23
2018-09-14T21:04:45.544Z,42.20
2018-09-14T21:07:25.725Z,37.70
2018-09-14T21:09:55.986Z,39.07
2018-09-14T21:12:29.828Z,36.60
2018-09-14T21:15:01.688Z,38.70
2018-09-14T21:17:33.474Z,37.57
2018-09-14T21:20:11.431Z,32.87
2018-09-14T21:22:41.419Z,33.83
2018-09-14T21:25:13.598Z,32.90
2018-09-14T21:27:47.511Z,41.80
2018-09-14T21:30:18.035Z,32.97
2018-09-14T21:32:52.580Z,34.73
2018-09-14T21:35:25.104Z,30.43
2018-09-14T21:37:59.908Z,32.60
2018-09-14T21:40:35.467Z,30.23
2018-09-14T21:43:12.910Z,31.00
2018-09-14T21:45:44.944Z,35.30
2018-09-14T21:48:16.537Z,31.10
2018-09-14T21:50:49.514Z,36.50
2018-09-14T21:53:25.916Z,25.50
2018-09-14T21:58:22.128Z,28.10
2018-09-14T22:01:01.538Z,29.03
2018-09-14T22:03:32.418Z,27.30
2018-09-14T22:06:06.136Z,30.27
2018-09-14T22:08:38.128Z,27.83
2018-09-14T22:11:09.723Z,26.93
2018-09-14T22:13:42.829Z,24.87
2018-09-14T22:16:13.297Z,29.07
2018-09-14T22:18:45.841Z,26.83
2018-09-14T22:21:18.731Z,25.37
2018-09-14T22:23:50.252Z,23.60
2018-09-14T22:26:21.154Z,25.90
2018-09-14T22:28:53.356Z,27.50
2018-09-14T22:31:24.403Z,27.13
2018-09-14T22:33:55.035Z,26.20
2018-09-14T22:36:31.924Z,31.07
2018-09-14T22:39:05.345Z,25.90
2018-09-14T22:41:36.238Z,27.60
2018-09-14T22:44:06.457Z,29.40
2018-09-14T22:46:37.993Z,31.37
2018-09-14T22:49:10.255Z,30.80
2018-09-14T22:51:42.532Z,28.03
2018-09-14T22:54:14.552Z,30.20
2018-09-14T22:56:47.370Z,27.97
2018-09-14T22:59:17.655Z,39.93
2018-09-14T23:01:53.368Z,28.97
2018-09-14T23:04:24.616Z,31.27
2018-09-14T23:06:59.757Z,32.77
2018-09-14T23:09:31.964Z,30.37
2018-09-14T23:12:03.920Z,29.73
2018-09-14T23:14:35.442Z,34.80
2018-09-14T23:17:11.965Z,33.57
2018-09-14T23:19:41.523Z,32.90
2018-09-14T23:22:13.666Z,30.27
2018-09-14T23:24:45.491Z,33.27
2018-09-14T23:27:18.808Z,45.00
2018-09-14T23:29:51.426Z,29.17
2018-09-14T23:32:20.693Z,34.10
2018-09-14T23:34:54.481Z,29.60
2018-09-14T23:37:26.875Z,35.83
2018-09-14T23:39:57.842Z,28.20
2018-09-14T23:42:29.482Z,25.30
2018-09-14T23:45:01.677Z,27.93
2018-09-14T23:47:33.983Z,32.10
2018-09-14T23:50:08.342Z,32.73
2018-09-14T23:52:41.329Z,30.10
2018-09-14T23:55:13.103Z,26.67
2018-09-14T23:57:49.085Z,28.47
